sensor_id;sensor_type;location;lat;lon;timestamp;temperature;humidity
9973;DHT22;5027;53.560;10.062;2023-12-14T00:02:14;9.30;99.90
9973;DHT22;5027;53.560;10.062;2023-12-14T00:04:41;9.20;99.90
9973;DHT22;5027;53.560;10.062;2023-12-14T00:07:08;9.30;99.90
9973;DHT22;5027;53.560;10.062;2023-12-14T00:09:35;9.30;99.90
9973;DHT22;5027;53.560;10.062;2023-12-14T00:12:02;9.30;99.90
9973;DHT22;5027;53.560;10.062;2023-12-14T00:14:28;9.20;99.90
9973;DHT22;5027;53.560;10.062;2023-12-14T00:16:55;9.20;99.90
9973;DHT22;5027;53.560;10.062;2023-12-14T00:19:25;9.20;99.90
9973;DHT22;5027;53.560;10.062;2023-12-14T00:21:52;9.20;99.90
9973;DHT22;5027;53.560;10.062;2023-12-14T00:24:19;9.30;99.90
9973;DHT22;5027;53.560;10.062;2023-12-14T00:26:45;9.30;99.90
9973;DHT22;5027;53.560;10.062;2023-12-14T00:29:12;9.20;99.90
9973;DHT22;5027;53.560;10.062;2023-12-14T00:31:39;9.20;99.90
9973;DHT22;5027;53.560;10.062;2023-12-14T00:34:06;9.20;99.90
9973;DHT22;5027;53.560;10.062;2023-12-14T00:36:33;9.20;99.90
9973;DHT22;5027;53.560;10.062;2023-12-14T00:39:00;9.20;99.90
9973;DHT22;5027;53.560;10.062;2023-12-14T00:41:26;9.20;99.90
9973;DHT22;5027;53.560;10.062;2023-12-14T00:43:53;9.20;99.90
9973;DHT22;5027;53.560;10.062;2023-12-14T00:46:20;9.20;99.90
9973;DHT22;5027;53.560;10.062;2023-12-14T00:48:47;9.20;99.90
9973;DHT22;5027;53.560;10.062;2023-12-14T00:51:14;9.30;99.90
9973;DHT22;5027;53.560;10.062;2023-12-14T00:53:41;9.20;99.90
9973;DHT22;5027;53.560;10.062;2023-12-14T00:56:08;9.20;99.90
9973;DHT22;5027;53.560;10.062;2023-12-14T00:58:38;9.20;99.90
9973;DHT22;5027;53.560;10.062;2023-12-14T01:01:09;9.20;99.90
9973;DHT22;5027;53.560;10.062;2023-12-14T01:03:39;9.20;99.90
9973;DHT22;5027;53.560;10.062;2023-12-14T01:06:06;9.20;99.90
9973;DHT22;5027;53.560;10.062;2023-12-14T01:08:33;9.20;99.90
9973;DHT22;5027;53.560;10.062;2023-12-14T01:11:00;9.30;99.90
9973;DHT22;5027;53.560;10.062;2023-12-14T01:13:27;9.30;99.90
9973;DHT22;5027;53.560;10.062;2023-12-14T01:15:54;9.30;99.90
9973;DHT22;5027;53.560;10.062;2023-12-14T01:18:20;9.30;99.90
9973;DHT22;5027;53.560;10.062;2023-12-14T01:20:47;9.30;99.90
9973;DHT22;5027;53.560;10.062;2023-12-14T01:23:14;9.20;99.90
9973;DHT22;5027;53.560;10.062;2023-12-14T01:25:41;9.30;99.90
9973;DHT22;5027;53.560;10.062;2023-12-14T01:28:08;9.20;99.90
9973;DHT22;5027;53.560;10.062;2023-12-14T01:30:35;9.20;99.90
9973;DHT22;5027;53.560;10.062;2023-12-14T01:33:02;9.20;99.90
9973;DHT22;5027;53.560;10.062;2023-12-14T01:35:29;9.20;99.90
9973;DHT22;5027;53.560;10.062;2023-12-14T01:37:56;9.30;99.90
9973;DHT22;5027;53.560;10.062;2023-12-14T01:40:23;9.30;99.90
9973;DHT22;5027;53.560;10.062;2023-12-14T01:42:50;9.30;99.90
9973;DHT22;5027;53.560;10.062;2023-12-14T01:45:28;9.30;99.90
9973;DHT22;5027;53.560;10.062;2023-12-14T01:48:01;9.30;99.90
9973;DHT22;5027;53.560;10.062;2023-12-14T01:50:30;9.30;99.90
9973;DHT22;5027;53.560;10.062;2023-12-14T01:52:57;9.30;99.90
9973;DHT22;5027;53.560;10.062;2023-12-14T01:55:25;9.20;99.90
9973;DHT22;5027;53.560;10.062;2023-12-14T01:58:16;9.30;99.90
9973;DHT22;5027;53.560;10.062;2023-12-14T02:01:23;9.20;99.90
9973;DHT22;5027;53.560;10.062;2023-12-14T02:03:56;9.30;99.90
9973;DHT22;5027;53.560;10.062;2023-12-14T02:06:26;9.30;99.90
9973;DHT22;5027;53.560;10.062;2023-12-14T02:08:52;9.30;99.90
9973;DHT22;5027;53.560;10.062;2023-12-14T02:11:19;9.30;99.90
9973;DHT22;5027;53.560;10.062;2023-12-14T02:13:46;9.30;99.90
9973;DHT22;5027;53.560;10.062;2023-12-14T02:16:13;9.30;99.90
9973;DHT22;5027;53.560;10.062;2023-12-14T02:18:40;9.30;99.90
9973;DHT22;5027;53.560;10.062;2023-12-14T02:21:13;9.30;99.90
9973;DHT22;5027;53.560;10.062;2023-12-14T02:23:46;9.30;99.90
9973;DHT22;5027;53.560;10.062;2023-12-14T02:26:13;9.30;99.90
9973;DHT22;5027;53.560;10.062;2023-12-14T02:28:46;9.20;99.90
9973;DHT22;5027;53.560;10.062;2023-12-14T02:31:12;9.30;99.90
9973;DHT22;5027;53.560;10.062;2023-12-14T02:33:39;9.20;99.90
9973;DHT22;5027;53.560;10.062;2023-12-14T02:36:08;9.30;99.90
9973;DHT22;5027;53.560;10.062;2023-12-14T02:38:34;9.20;99.90
9973;DHT22;5027;53.560;10.062;2023-12-14T02:41:04;9.20;99.90
9973;DHT22;5027;53.560;10.062;2023-12-14T02:46:39;9.20;99.90
9973;DHT22;5027;53.560;10.062;2023-12-14T02:49:06;9.30;99.90
9973;DHT22;5027;53.560;10.062;2023-12-14T02:51:33;9.30;99.90
9973;DHT22;5027;53.560;10.062;2023-12-14T02:53:59;9.30;99.90
9973;DHT22;5027;53.560;10.062;2023-12-14T02:56:26;9.30;99.90
9973;DHT22;5027;53.560;10.062;2023-12-14T02:58:53;9.30;99.90
9973;DHT22;5027;53.560;10.062;2023-12-14T03:01:24;9.20;99.90
9973;DHT22;5027;53.560;10.062;2023-12-14T03:03:50;9.20;99.90
9973;DHT22;5027;53.560;10.062;2023-12-14T03:06:17;9.20;99.90
9973;DHT22;5027;53.560;10.062;2023-12-14T03:08:44;9.30;99.90
9973;DHT22;5027;53.560;10.062;2023-12-14T03:11:21;9.30;99.90
9973;DHT22;5027;53.560;10.062;2023-12-14T03:17:10;9.20;99.90
9973;DHT22;5027;53.560;10.062;2023-12-14T03:19:42;9.20;99.90
9973;DHT22;5027;53.560;10.062;2023-12-14T03:22:12;9.20;99.90
9973;DHT22;5027;53.560;10.062;2023-12-14T03:24:39;9.20;99.90
9973;DHT22;5027;53.560;10.062;2023-12-14T03:27:06;9.20;99.90
9973;DHT22;5027;53.560;10.062;2023-12-14T03:29:33;9.20;99.90
9973;DHT22;5027;53.560;10.062;2023-12-14T03:32:00;9.20;99.90
9973;DHT22;5027;53.560;10.062;2023-12-14T03:34:35;9.20;99.90
9973;DHT22;5027;53.560;10.062;2023-12-14T03:37:02;9.20;99.90
9973;DHT22;5027;53.560;10.062;2023-12-14T03:39:28;9.30;99.90
9973;DHT22;5027;53.560;10.062;2023-12-14T03:41:58;9.20;99.90
9973;DHT22;5027;53.560;10.062;2023-12-14T03:44:25;9.20;99.90
9973;DHT22;5027;53.560;10.062;2023-12-14T03:46:51;9.20;99.90
9973;DHT22;5027;53.560;10.062;2023-12-14T03:49:18;9.20;99.90
9973;DHT22;5027;53.560;10.062;2023-12-14T03:51:45;9.30;99.90
9973;DHT22;5027;53.560;10.062;2023-12-14T03:54:12;9.20;99.90
9973;DHT22;5027;53.560;10.062;2023-12-14T03:56:39;9.30;99.90
9973;DHT22;5027;53.560;10.062;2023-12-14T03:59:05;9.30;99.90
9973;DHT22;5027;53.560;10.062;2023-12-14T04:01:32;9.30;99.90
9973;DHT22;5027;53.560;10.062;2023-12-14T04:04:04;9.20;99.90
9973;DHT22;5027;53.560;10.062;2023-12-14T04:06:39;9.30;99.90
9973;DHT22;5027;53.560;10.062;2023-12-14T04:09:08;9.30;99.90
9973;DHT22;5027;53.560;10.062;2023-12-14T04:11:36;9.30;99.90
9973;DHT22;5027;53.560;10.062;2023-12-14T04:14:03;9.30;99.90
9973;DHT22;5027;53.560;10.062;2023-12-14T04:16:30;9.20;99.90
9973;DHT22;5027;53.560;10.062;2023-12-14T04:18:57;9.30;99.90
9973;DHT22;5027;53.560;10.062;2023-12-14T04:21:24;9.20;99.90
9973;DHT22;5027;53.560;10.062;2023-12-14T04:23:50;9.20;99.90
9973;DHT22;5027;53.560;10.062;2023-12-14T04:26:17;9.20;99.90
9973;DHT22;5027;53.560;10.062;2023-12-14T04:28:44;9.20;99.90
9973;DHT22;5027;53.560;10.062;2023-12-14T04:31:12;9.20;99.90
9973;DHT22;5027;53.560;10.062;2023-12-14T04:33:39;9.30;99.90
9973;DHT22;5027;53.560;10.062;2023-12-14T04:36:08;9.30;99.90
9973;DHT22;5027;53.560;10.062;2023-12-14T04:38:34;9.30;99.90
9973;DHT22;5027;53.560;10.062;2023-12-14T04:41:01;9.20;99.90
9973;DHT22;5027;53.560;10.062;2023-12-14T04:43:28;9.30;99.90
9973;DHT22;5027;53.560;10.062;2023-12-14T04:45:59;9.30;99.90
9973;DHT22;5027;53.560;10.062;2023-12-14T04:48:29;9.30;99.90
9973;DHT22;5027;53.560;10.062;2023-12-14T04:50:56;9.30;99.90
9973;DHT22;5027;53.560;10.062;2023-12-14T04:53:23;9.30;99.90
9973;DHT22;5027;53.560;10.062;2023-12-14T04:55:51;9.30;99.90
9973;DHT22;5027;53.560;10.062;2023-12-14T04:58:18;9.30;99.90
9973;DHT22;5027;53.560;10.062;2023-12-14T05:00:45;9.30;99.90
9973;DHT22;5027;53.560;10.062;2023-12-14T05:03:14;9.30;99.90
9973;DHT22;5027;53.560;10.062;2023-12-14T05:05:42;9.30;99.90
9973;DHT22;5027;53.560;10.062;2023-12-14T05:08:08;9.30;99.90
9973;DHT22;5027;53.560;10.062;2023-12-14T05:10:40;9.30;99.90
9973;DHT22;5027;53.560;10.062;2023-12-14T05:13:06;9.30;99.90
9973;DHT22;5027;53.560;10.062;2023-12-14T05:15:35;9.30;99.90
9973;DHT22;5027;53.560;10.062;2023-12-14T05:18:02;9.30;99.90
9973;DHT22;5027;53.560;10.062;2023-12-14T05:20:29;9.30;99.90
9973;DHT22;5027;53.560;10.062;2023-12-14T05:22:56;9.30;99.90
9973;DHT22;5027;53.560;10.062;2023-12-14T05:25:23;9.30;99.90
9973;DHT22;5027;53.560;10.062;2023-12-14T05:27:49;9.30;99.90
9973;DHT22;5027;53.560;10.062;2023-12-14T05:30:16;9.30;99.90
9973;DHT22;5027;53.560;10.062;2023-12-14T05:32:44;9.30;99.90
9973;DHT22;5027;53.560;10.062;2023-12-14T05:35:11;9.30;99.90
9973;DHT22;5027;53.560;10.062;2023-12-14T05:37:39;9.30;99.90
9973;DHT22;5027;53.560;10.062;2023-12-14T05:40:07;9.30;99.90
9973;DHT22;5027;53.560;10.062;2023-12-14T05:42:34;9.20;99.90
9973;DHT22;5027;53.560;10.062;2023-12-14T05:45:01;9.30;99.90
9973;DHT22;5027;53.560;10.062;2023-12-14T05:47:28;9.20;99.90
9973;DHT22;5027;53.560;10.062;2023-12-14T05:49:56;9.30;99.90
9973;DHT22;5027;53.560;10.062;2023-12-14T05:52:23;9.30;99.90
9973;DHT22;5027;53.560;10.062;2023-12-14T05:54:50;9.30;99.90
9973;DHT22;5027;53.560;10.062;2023-12-14T05:57:17;9.30;99.90
9973;DHT22;5027;53.560;10.062;2023-12-14T05:59:43;9.30;99.90
9973;DHT22;5027;53.560;10.062;2023-12-14T06:02:10;9.30;99.90
9973;DHT22;5027;53.560;10.062;2023-12-14T06:04:38;9.20;99.90
9973;DHT22;5027;53.560;10.062;2023-12-14T06:07:06;9.20;99.90
9973;DHT22;5027;53.560;10.062;2023-12-14T06:09:34;9.20;99.90
9973;DHT22;5027;53.560;10.062;2023-12-14T06:12:02;9.30;99.90
9973;DHT22;5027;53.560;10.062;2023-12-14T06:14:29;9.30;99.90
9973;DHT22;5027;53.560;10.062;2023-12-14T06:16:58;9.30;99.90
9973;DHT22;5027;53.560;10.062;2023-12-14T06:19:25;9.30;99.90
9973;DHT22;5027;53.560;10.062;2023-12-14T06:21:51;9.30;99.90
9973;DHT22;5027;53.560;10.062;2023-12-14T06:24:18;9.30;99.90
9973;DHT22;5027;53.560;10.062;2023-12-14T06:26:48;9.20;99.90
9973;DHT22;5027;53.560;10.062;2023-12-14T06:29:14;9.20;99.90
9973;DHT22;5027;53.560;10.062;2023-12-14T06:31:41;9.20;99.90
9973;DHT22;5027;53.560;10.062;2023-12-14T06:34:08;9.20;99.90
9973;DHT22;5027;53.560;10.062;2023-12-14T06:36:35;9.20;99.90
9973;DHT22;5027;53.560;10.062;2023-12-14T06:39:02;9.20;99.90
9973;DHT22;5027;53.560;10.062;2023-12-14T06:41:32;9.20;99.90
9973;DHT22;5027;53.560;10.062;2023-12-14T06:43:58;9.20;99.90
9973;DHT22;5027;53.560;10.062;2023-12-14T06:46:25;9.20;99.90
9973;DHT22;5027;53.560;10.062;2023-12-14T06:48:52;9.20;99.90
9973;DHT22;5027;53.560;10.062;2023-12-14T06:51:20;9.20;99.90
9973;DHT22;5027;53.560;10.062;2023-12-14T06:53:47;9.20;99.90
9973;DHT22;5027;53.560;10.062;2023-12-14T06:56:14;9.20;99.90
9973;DHT22;5027;53.560;10.062;2023-12-14T06:58:43;9.20;99.90
9973;DHT22;5027;53.560;10.062;2023-12-14T07:01:14;9.20;99.90
9973;DHT22;5027;53.560;10.062;2023-12-14T07:03:44;9.10;99.90
9973;DHT22;5027;53.560;10.062;2023-12-14T07:06:13;9.20;99.90
9973;DHT22;5027;53.560;10.062;2023-12-14T07:08:41;9.20;99.90
9973;DHT22;5027;53.560;10.062;2023-12-14T07:11:08;9.20;99.90
9973;DHT22;5027;53.560;10.062;2023-12-14T07:13:35;9.20;99.90
9973;DHT22;5027;53.560;10.062;2023-12-14T07:16:10;9.20;99.90
9973;DHT22;5027;53.560;10.062;2023-12-14T07:18:37;9.20;99.90
9973;DHT22;5027;53.560;10.062;2023-12-14T07:21:05;9.10;99.90
9973;DHT22;5027;53.560;10.062;2023-12-14T07:23:33;9.10;99.90
9973;DHT22;5027;53.560;10.062;2023-12-14T07:26:00;9.10;99.90
9973;DHT22;5027;53.560;10.062;2023-12-14T07:28:29;9.10;99.90
9973;DHT22;5027;53.560;10.062;2023-12-14T07:30:56;9.20;99.90
9973;DHT22;5027;53.560;10.062;2023-12-14T07:33:24;9.20;99.90
9973;DHT22;5027;53.560;10.062;2023-12-14T07:35:51;9.20;99.90
9973;DHT22;5027;53.560;10.062;2023-12-14T07:38:18;9.20;99.90
9973;DHT22;5027;53.560;10.062;2023-12-14T07:40:44;9.20;99.90
9973;DHT22;5027;53.560;10.062;2023-12-14T07:43:13;9.20;99.90
9973;DHT22;5027;53.560;10.062;2023-12-14T07:45:40;9.20;99.90
9973;DHT22;5027;53.560;10.062;2023-12-14T07:48:06;9.20;99.90
9973;DHT22;5027;53.560;10.062;2023-12-14T07:50:33;9.20;99.90
9973;DHT22;5027;53.560;10.062;2023-12-14T07:53:00;9.20;99.90
9973;DHT22;5027;53.560;10.062;2023-12-14T07:55:28;9.20;99.90
9973;DHT22;5027;53.560;10.062;2023-12-14T07:57:55;9.20;99.90
9973;DHT22;5027;53.560;10.062;2023-12-14T08:00:22;9.20;99.90
9973;DHT22;5027;53.560;10.062;2023-12-14T08:02:48;9.10;99.90
9973;DHT22;5027;53.560;10.062;2023-12-14T08:05:15;9.10;99.90
9973;DHT22;5027;53.560;10.062;2023-12-14T08:07:42;9.10;99.90
9973;DHT22;5027;53.560;10.062;2023-12-14T08:10:09;9.20;99.90
9973;DHT22;5027;53.560;10.062;2023-12-14T08:12:36;9.10;99.90
9973;DHT22;5027;53.560;10.062;2023-12-14T08:15:04;9.10;99.90
9973;DHT22;5027;53.560;10.062;2023-12-14T08:17:31;9.20;99.90
9973;DHT22;5027;53.560;10.062;2023-12-14T08:19:58;9.20;99.90
9973;DHT22;5027;53.560;10.062;2023-12-14T08:22:25;9.20;99.90
9973;DHT22;5027;53.560;10.062;2023-12-14T08:24:52;9.20;99.90
9973;DHT22;5027;53.560;10.062;2023-12-14T08:27:18;9.20;99.90
9973;DHT22;5027;53.560;10.062;2023-12-14T08:29:45;9.20;99.90
9973;DHT22;5027;53.560;10.062;2023-12-14T08:32:12;9.30;99.90
9973;DHT22;5027;53.560;10.062;2023-12-14T08:34:40;9.20;99.90
9973;DHT22;5027;53.560;10.062;2023-12-14T08:37:07;9.20;99.90
9973;DHT22;5027;53.560;10.062;2023-12-14T08:39:34;9.20;99.90
9973;DHT22;5027;53.560;10.062;2023-12-14T08:42:01;9.20;99.90
9973;DHT22;5027;53.560;10.062;2023-12-14T08:44:28;9.20;99.90
9973;DHT22;5027;53.560;10.062;2023-12-14T08:46:54;9.20;99.90
9973;DHT22;5027;53.560;10.062;2023-12-14T08:49:21;9.20;99.90
9973;DHT22;5027;53.560;10.062;2023-12-14T08:51:49;9.20;99.90
9973;DHT22;5027;53.560;10.062;2023-12-14T08:54:16;9.20;99.90
9973;DHT22;5027;53.560;10.062;2023-12-14T08:56:43;9.10;99.90
9973;DHT22;5027;53.560;10.062;2023-12-14T08:59:10;9.20;99.90
9973;DHT22;5027;53.560;10.062;2023-12-14T09:01:39;9.20;99.90
9973;DHT22;5027;53.560;10.062;2023-12-14T09:04:06;9.20;99.90
9973;DHT22;5027;53.560;10.062;2023-12-14T09:06:33;9.30;99.90
9973;DHT22;5027;53.560;10.062;2023-12-14T09:09:00;9.30;99.90
9973;DHT22;5027;53.560;10.062;2023-12-14T09:11:26;9.30;99.90
9973;DHT22;5027;53.560;10.062;2023-12-14T09:13:53;9.40;99.90
9973;DHT22;5027;53.560;10.062;2023-12-14T09:16:20;9.40;99.90
9973;DHT22;5027;53.560;10.062;2023-12-14T09:18:46;9.40;99.90
9973;DHT22;5027;53.560;10.062;2023-12-14T09:21:13;9.30;99.90
9973;DHT22;5027;53.560;10.062;2023-12-14T09:23:41;9.30;99.90
9973;DHT22;5027;53.560;10.062;2023-12-14T09:26:09;9.30;99.90
9973;DHT22;5027;53.560;10.062;2023-12-14T09:28:37;9.20;99.90
9973;DHT22;5027;53.560;10.062;2023-12-14T09:31:04;9.30;99.90
9973;DHT22;5027;53.560;10.062;2023-12-14T09:33:34;9.30;99.90
9973;DHT22;5027;53.560;10.062;2023-12-14T09:36:01;9.20;99.90
9973;DHT22;5027;53.560;10.062;2023-12-14T09:38:27;9.20;99.90
9973;DHT22;5027;53.560;10.062;2023-12-14T09:40:54;9.30;99.90
9973;DHT22;5027;53.560;10.062;2023-12-14T09:43:21;9.30;99.90
9973;DHT22;5027;53.560;10.062;2023-12-14T09:45:50;9.30;99.90
9973;DHT22;5027;53.560;10.062;2023-12-14T09:48:17;9.30;99.90
9973;DHT22;5027;53.560;10.062;2023-12-14T09:50:45;9.30;99.90
9973;DHT22;5027;53.560;10.062;2023-12-14T09:53:13;9.40;99.90
9973;DHT22;5027;53.560;10.062;2023-12-14T09:55:39;9.40;99.90
9973;DHT22;5027;53.560;10.062;2023-12-14T09:58:06;9.40;99.90
9973;DHT22;5027;53.560;10.062;2023-12-14T10:00:37;9.30;99.90
9973;DHT22;5027;53.560;10.062;2023-12-14T10:03:33;9.30;99.90
9973;DHT22;5027;53.560;10.062;2023-12-14T10:06:00;9.40;99.90
9973;DHT22;5027;53.560;10.062;2023-12-14T10:08:30;9.30;99.90
9973;DHT22;5027;53.560;10.062;2023-12-14T10:10:56;9.30;99.90
9973;DHT22;5027;53.560;10.062;2023-12-14T10:13:37;9.30;99.90
9973;DHT22;5027;53.560;10.062;2023-12-14T10:16:05;9.30;99.90
9973;DHT22;5027;53.560;10.062;2023-12-14T10:18:32;9.40;99.90
9973;DHT22;5027;53.560;10.062;2023-12-14T10:21:05;9.40;99.90
9973;DHT22;5027;53.560;10.062;2023-12-14T10:23:33;9.40;99.90
9973;DHT22;5027;53.560;10.062;2023-12-14T10:26:01;9.30;99.90
9973;DHT22;5027;53.560;10.062;2023-12-14T10:28:28;9.40;99.90
9973;DHT22;5027;53.560;10.062;2023-12-14T10:30:55;9.40;99.90
9973;DHT22;5027;53.560;10.062;2023-12-14T10:33:22;9.30;99.90
9973;DHT22;5027;53.560;10.062;2023-12-14T10:35:49;9.40;99.90
9973;DHT22;5027;53.560;10.062;2023-12-14T10:38:17;9.50;99.90
9973;DHT22;5027;53.560;10.062;2023-12-14T10:40:45;9.50;99.90
9973;DHT22;5027;53.560;10.062;2023-12-14T10:43:13;9.40;99.90
9973;DHT22;5027;53.560;10.062;2023-12-14T10:45:52;9.40;99.90
9973;DHT22;5027;53.560;10.062;2023-12-14T10:48:21;9.40;99.90
9973;DHT22;5027;53.560;10.062;2023-12-14T10:50:48;9.40;99.90
9973;DHT22;5027;53.560;10.062;2023-12-14T10:53:17;9.40;99.90
9973;DHT22;5027;53.560;10.062;2023-12-14T10:55:44;9.40;99.90
9973;DHT22;5027;53.560;10.062;2023-12-14T10:58:12;9.40;99.90
9973;DHT22;5027;53.560;10.062;2023-12-14T11:00:39;9.40;99.90
9973;DHT22;5027;53.560;10.062;2023-12-14T11:03:06;9.40;99.90
9973;DHT22;5027;53.560;10.062;2023-12-14T11:05:34;9.40;99.90
9973;DHT22;5027;53.560;10.062;2023-12-14T11:08:04;9.40;99.90
9973;DHT22;5027;53.560;10.062;2023-12-14T11:10:52;9.40;99.90
9973;DHT22;5027;53.560;10.062;2023-12-14T11:13:19;9.50;99.90
9973;DHT22;5027;53.560;10.062;2023-12-14T11:15:51;9.50;99.90
9973;DHT22;5027;53.560;10.062;2023-12-14T11:23:13;9.50;99.90
9973;DHT22;5027;53.560;10.062;2023-12-14T11:25:41;9.50;99.90
9973;DHT22;5027;53.560;10.062;2023-12-14T11:28:12;9.50;99.90
9973;DHT22;5027;53.560;10.062;2023-12-14T11:30:42;9.50;99.90
9973;DHT22;5027;53.560;10.062;2023-12-14T11:33:21;9.50;99.90
9973;DHT22;5027;53.560;10.062;2023-12-14T11:35:50;9.60;99.90
9973;DHT22;5027;53.560;10.062;2023-12-14T11:38:18;9.70;99.90
9973;DHT22;5027;53.560;10.062;2023-12-14T11:40:47;9.60;99.90
9973;DHT22;5027;53.560;10.062;2023-12-14T11:43:15;9.60;99.90
9973;DHT22;5027;53.560;10.062;2023-12-14T11:45:43;9.60;99.90
9973;DHT22;5027;53.560;10.062;2023-12-14T11:48:11;9.50;99.90
9973;DHT22;5027;53.560;10.062;2023-12-14T11:50:42;9.50;99.90
9973;DHT22;5027;53.560;10.062;2023-12-14T11:53:10;9.50;99.90
9973;DHT22;5027;53.560;10.062;2023-12-14T11:55:40;9.50;99.90
9973;DHT22;5027;53.560;10.062;2023-12-14T11:58:08;9.50;99.90
9973;DHT22;5027;53.560;10.062;2023-12-14T12:00:35;9.50;99.90
9973;DHT22;5027;53.560;10.062;2023-12-14T12:03:08;9.50;99.90
9973;DHT22;5027;53.560;10.062;2023-12-14T12:05:46;9.50;99.90
9973;DHT22;5027;53.560;10.062;2023-12-14T12:08:15;9.50;99.90
9973;DHT22;5027;53.560;10.062;2023-12-14T12:10:43;9.60;99.90
9973;DHT22;5027;53.560;10.062;2023-12-14T12:13:20;9.60;99.90
9973;DHT22;5027;53.560;10.062;2023-12-14T12:15:47;9.60;99.90
9973;DHT22;5027;53.560;10.062;2023-12-14T12:18:16;9.60;99.90
9973;DHT22;5027;53.560;10.062;2023-12-14T12:20:43;9.60;99.90
9973;DHT22;5027;53.560;10.062;2023-12-14T12:23:10;9.70;99.90
9973;DHT22;5027;53.560;10.062;2023-12-14T12:25:37;9.60;99.90
9973;DHT22;5027;53.560;10.062;2023-12-14T12:28:04;9.50;99.90
9973;DHT22;5027;53.560;10.062;2023-12-14T12:30:31;9.60;99.90
9973;DHT22;5027;53.560;10.062;2023-12-14T12:32:58;9.70;99.90
9973;DHT22;5027;53.560;10.062;2023-12-14T12:35:25;9.60;99.90
9973;DHT22;5027;53.560;10.062;2023-12-14T12:37:52;9.60;99.90
9973;DHT22;5027;53.560;10.062;2023-12-14T12:40:23;9.70;99.90
9973;DHT22;5027;53.560;10.062;2023-12-14T12:42:52;9.60;99.90
9973;DHT22;5027;53.560;10.062;2023-12-14T12:45:19;9.50;99.90
9973;DHT22;5027;53.560;10.062;2023-12-14T12:47:49;9.60;99.90
9973;DHT22;5027;53.560;10.062;2023-12-14T12:50:16;9.80;99.90
9973;DHT22;5027;53.560;10.062;2023-12-14T12:52:43;9.80;99.90
9973;DHT22;5027;53.560;10.062;2023-12-14T12:55:11;9.80;99.90
9973;DHT22;5027;53.560;10.062;2023-12-14T12:57:38;10.50;99.90
9973;DHT22;5027;53.560;10.062;2023-12-14T13:00:05;10.90;99.90
9973;DHT22;5027;53.560;10.062;2023-12-14T13:02:34;10.80;99.90
9973;DHT22;5027;53.560;10.062;2023-12-14T13:05:01;10.40;99.90
9973;DHT22;5027;53.560;10.062;2023-12-14T13:07:28;10.10;99.90
9973;DHT22;5027;53.560;10.062;2023-12-14T13:09:55;9.90;99.90
9973;DHT22;5027;53.560;10.062;2023-12-14T13:12:22;9.90;99.90
9973;DHT22;5027;53.560;10.062;2023-12-14T13:14:49;9.80;99.90
9973;DHT22;5027;53.560;10.062;2023-12-14T13:17:15;9.70;99.90
9973;DHT22;5027;53.560;10.062;2023-12-14T13:19:44;9.60;99.90
9973;DHT22;5027;53.560;10.062;2023-12-14T13:22:11;9.60;99.90
9973;DHT22;5027;53.560;10.062;2023-12-14T13:24:39;9.50;99.90
9973;DHT22;5027;53.560;10.062;2023-12-14T13:27:06;9.60;99.90
9973;DHT22;5027;53.560;10.062;2023-12-14T13:29:33;9.60;99.90
9973;DHT22;5027;53.560;10.062;2023-12-14T13:32:01;9.60;99.90
9973;DHT22;5027;53.560;10.062;2023-12-14T13:34:28;9.70;99.90
9973;DHT22;5027;53.560;10.062;2023-12-14T13:36:55;9.70;99.90
9973;DHT22;5027;53.560;10.062;2023-12-14T13:39:23;9.50;99.90
9973;DHT22;5027;53.560;10.062;2023-12-14T13:41:49;9.60;99.90
9973;DHT22;5027;53.560;10.062;2023-12-14T13:44:17;9.60;99.90
9973;DHT22;5027;53.560;10.062;2023-12-14T13:46:44;9.70;99.90
9973;DHT22;5027;53.560;10.062;2023-12-14T13:49:10;9.70;99.90
9973;DHT22;5027;53.560;10.062;2023-12-14T13:51:37;9.70;99.90
9973;DHT22;5027;53.560;10.062;2023-12-14T13:54:04;9.60;99.90
9973;DHT22;5027;53.560;10.062;2023-12-14T13:56:31;9.50;99.90
9973;DHT22;5027;53.560;10.062;2023-12-14T13:58:58;9.50;99.90
9973;DHT22;5027;53.560;10.062;2023-12-14T14:01:25;9.40;99.90
9973;DHT22;5027;53.560;10.062;2023-12-14T14:03:52;9.50;99.90
9973;DHT22;5027;53.560;10.062;2023-12-14T14:06:19;9.40;99.90
9973;DHT22;5027;53.560;10.062;2023-12-14T14:08:47;9.40;99.90
9973;DHT22;5027;53.560;10.062;2023-12-14T14:11:14;9.50;99.90
9973;DHT22;5027;53.560;10.062;2023-12-14T14:13:41;9.50;99.90
9973;DHT22;5027;53.560;10.062;2023-12-14T14:16:08;9.50;99.90
9973;DHT22;5027;53.560;10.062;2023-12-14T14:18:35;9.50;99.90
9973;DHT22;5027;53.560;10.062;2023-12-14T14:21:02;9.50;99.90
9973;DHT22;5027;53.560;10.062;2023-12-14T14:23:28;9.50;99.90
9973;DHT22;5027;53.560;10.062;2023-12-14T14:25:58;9.50;99.90
9973;DHT22;5027;53.560;10.062;2023-12-14T14:28:25;9.50;99.90
9973;DHT22;5027;53.560;10.062;2023-12-14T14:30:52;9.50;99.90
9973;DHT22;5027;53.560;10.062;2023-12-14T14:33:19;9.40;99.90
9973;DHT22;5027;53.560;10.062;2023-12-14T14:35:47;9.40;99.90
9973;DHT22;5027;53.560;10.062;2023-12-14T14:38:14;9.50;99.90
9973;DHT22;5027;53.560;10.062;2023-12-14T14:40:41;9.40;99.90
9973;DHT22;5027;53.560;10.062;2023-12-14T14:43:09;9.50;99.90
9973;DHT22;5027;53.560;10.062;2023-12-14T14:45:36;9.50;99.90
9973;DHT22;5027;53.560;10.062;2023-12-14T14:48:04;9.40;99.90
9973;DHT22;5027;53.560;10.062;2023-12-14T14:50:35;9.40;99.90
9973;DHT22;5027;53.560;10.062;2023-12-14T14:53:02;9.40;99.90
9973;DHT22;5027;53.560;10.062;2023-12-14T14:55:30;9.40;99.90
9973;DHT22;5027;53.560;10.062;2023-12-14T14:57:57;9.40;99.90
9973;DHT22;5027;53.560;10.062;2023-12-14T15:00:24;9.40;99.90
9973;DHT22;5027;53.560;10.062;2023-12-14T15:02:52;9.40;99.90
9973;DHT22;5027;53.560;10.062;2023-12-14T15:05:19;9.40;99.90
9973;DHT22;5027;53.560;10.062;2023-12-14T15:07:45;9.30;99.90
9973;DHT22;5027;53.560;10.062;2023-12-14T15:10:12;9.30;99.90
9973;DHT22;5027;53.560;10.062;2023-12-14T15:12:39;9.30;99.90
9973;DHT22;5027;53.560;10.062;2023-12-14T15:15:06;9.30;99.90
9973;DHT22;5027;53.560;10.062;2023-12-14T15:17:36;9.40;99.90
9973;DHT22;5027;53.560;10.062;2023-12-14T15:20:04;9.40;99.90
9973;DHT22;5027;53.560;10.062;2023-12-14T15:22:31;9.40;99.90
9973;DHT22;5027;53.560;10.062;2023-12-14T15:24:58;9.40;99.90
9973;DHT22;5027;53.560;10.062;2023-12-14T15:27:25;9.40;99.90
9973;DHT22;5027;53.560;10.062;2023-12-14T15:29:52;9.30;99.90
9973;DHT22;5027;53.560;10.062;2023-12-14T15:32:20;9.40;99.90
9973;DHT22;5027;53.560;10.062;2023-12-14T15:34:47;9.40;99.90
9973;DHT22;5027;53.560;10.062;2023-12-14T15:37:16;9.40;99.90
9973;DHT22;5027;53.560;10.062;2023-12-14T15:39:43;9.40;99.90
9973;DHT22;5027;53.560;10.062;2023-12-14T15:42:16;9.30;99.90
9973;DHT22;5027;53.560;10.062;2023-12-14T15:44:43;9.40;99.90
9973;DHT22;5027;53.560;10.062;2023-12-14T15:47:14;9.30;99.90
9973;DHT22;5027;53.560;10.062;2023-12-14T15:49:42;9.30;99.90
9973;DHT22;5027;53.560;10.062;2023-12-14T15:52:09;9.30;99.90
9973;DHT22;5027;53.560;10.062;2023-12-14T15:54:36;9.30;99.90
9973;DHT22;5027;53.560;10.062;2023-12-14T15:57:03;9.30;99.90
9973;DHT22;5027;53.560;10.062;2023-12-14T15:59:30;9.30;99.90
9973;DHT22;5027;53.560;10.062;2023-12-14T16:01:59;9.30;99.90
9973;DHT22;5027;53.560;10.062;2023-12-14T16:04:25;9.30;99.90
9973;DHT22;5027;53.560;10.062;2023-12-14T16:06:52;9.30;99.90
9973;DHT22;5027;53.560;10.062;2023-12-14T16:09:19;9.20;99.90
9973;DHT22;5027;53.560;10.062;2023-12-14T16:11:46;9.30;99.90
9973;DHT22;5027;53.560;10.062;2023-12-14T16:14:13;9.30;99.90
9973;DHT22;5027;53.560;10.062;2023-12-14T16:16:40;9.20;99.90
9973;DHT22;5027;53.560;10.062;2023-12-14T16:19:06;9.20;99.90